Air Resources Laboratory banner image
Air Resources Laboratory web site National Oceanic and Atmospheric Administration (NOAA)

vt metar


KBTV 170854Z 00000KT 10SM CLR 17/15 A3007 RMK AO2 SLP182 T01720150 57001 $=
KDDH 170854Z AUTO 00000KT 10SM OVC080 17/15 A3006 RMK AO2 SLP173 T01720150
 55000=
KEFK 170855Z AUTO 00000KT 3SM BR OVC004 14/13 A3012 RMK AO2 T01440130=
KMPV 170851Z AUTO 00000KT 1/4SM FG VV001 16/14 A3013 RMK AO2 SLP199 T01610144
 56003=
KMVL 170854Z AUTO 00000KT 10SM BKN100 13/12 A3010 RMK AO2 SLP193 T01280117
 56003=
KRUT 170856Z AUTO 00000KT 10SM OVC100 16/15 A3007 RMK AO2 SLP176 T01610150
 58002 $=
KVSF 170854Z AUTO 00000KT 10SM -RA FEW002 BKN090 OVC120 17/16 A3006 RMK AO2
 SLP178 P0000 60000 T01670156 56004 TSNO=